Pagrindinis puslapis
METAR-TAF:

METAR-TAF

Oro uostai :

Gracas, Austrija

platuma: 47-00N, ilguma: 015-26E, Aukštis: 340 m

Dabartinis oras

Ataskaita buvo paskelbta 18 minutes, ne 18:50 UTC
Vėjas 3 kt iš Pietų/Pietryčių, svyruoja nuo Rytų ir Pietvakarių
Temperatūra 12°C
Drėgmė 67%
Slėgis 1027 hPa
Matomumas 10 km arba daugiau
Mažai debesys ne aukštis 5000 ft
Su prošvaistėmis ne aukštis 6000 ft

METAR: LOWG 191850Z AUTO 15003KT 090V220 9999 FEW050 BKN060 12/06 Q1027 NOSIG

Laikas: 21:08 (19:08 UTC)

Prognozė

Ataskaita buvo paskelbta 1 valandą ir 53 minutes, ne 17:15 UTC
Prognozė galioja nuo 19 metu 18 UTC su 20 metu 18 UTC
Vėjas 2 kt nuo kintamojo kryptimis
Matomumas 10 km arba daugiau
Išsisklaidę debesys ne aukštis 5000 ft
Išsisklaidę debesys ne aukštis 6000 ft
Laikinai
nuo 20 metu 11 UTC su 20 metu 16 UTC
Vėjas 7 kt iš Rytų/Pietryčių
Mažai debesys ne aukštis 5000 ft

TAF: LOWG 191715Z 1918/2018 VRB02KT 9999 SCT050 SCT060 TX16/2013Z TN05/2004Z TEMPO 2011/2016 12007KT FEW050

Orai ataskaitas ir orų prognozės (METAR, TAF).

turimą stotys yra geltonos ir raudonos taškus žemėlapyje.

Perkelti pele per norėdami pamatyti stoties vardą.

Tada spustelėkite, norėdami matyti oro stebėjimo ir prognozės.

Norėdami pakeisti žemėlapį: spustelėkite ant žalios mygtukų su juodo kryžiaus žemyn,; žalią mygtuką su brūkšneliu, jei norite nutolinti; arba žalių rodyklių gretimoms žemėlapius.


METAR-TAF: